createdAt,value
2017-10-15T00:01:25.919Z,35.47
2017-10-15T00:03:53.387Z,49.80
2017-10-15T00:06:20.858Z,35.77
2017-10-15T00:08:48.331Z,49.77
2017-10-15T00:11:16.572Z,40.37
2017-10-15T00:13:44.051Z,43.30
2017-10-15T00:16:11.515Z,42.80
2017-10-15T00:18:39.747Z,39.77
2017-10-15T00:21:07.215Z,43.43
2017-10-15T00:23:34.687Z,40.17
2017-10-15T00:26:02.256Z,33.20
2017-10-15T00:28:29.730Z,32.80
2017-10-15T00:30:57.973Z,33.43
2017-10-15T00:33:25.469Z,30.10
2017-10-15T00:35:53.703Z,35.23
2017-10-15T00:38:22.214Z,34.70
2017-10-15T00:40:50.467Z,40.37
2017-10-15T00:43:17.954Z,32.13
2017-10-15T00:45:46.198Z,36.30
2017-10-15T00:48:13.672Z,42.23
2017-10-15T00:50:41.931Z,37.90
2017-10-15T00:53:09.415Z,41.97
2017-10-15T00:55:37.667Z,35.90
2017-10-15T00:58:05.132Z,46.50
2017-10-15T01:00:32.620Z,47.40
2017-10-15T01:03:00.134Z,44.30
2017-10-15T01:05:27.780Z,48.47
2017-10-15T01:07:55.309Z,41.60
2017-10-15T01:10:22.777Z,61.67
2017-10-15T01:12:50.276Z,48.93
2017-10-15T01:15:17.755Z,50.03
2017-10-15T01:17:46.013Z,41.77
2017-10-15T01:20:13.569Z,37.80
2017-10-15T01:22:41.046Z,42.47
2017-10-15T01:25:09.287Z,37.97
2017-10-15T01:27:36.768Z,40.33
2017-10-15T01:30:05.036Z,34.23
2017-10-15T01:32:33.262Z,37.43
2017-10-15T01:35:00.736Z,35.23
2017-10-15T01:37:28.319Z,35.17
2017-10-15T01:39:55.874Z,40.53
2017-10-15T01:42:23.335Z,34.97
2017-10-15T01:44:50.886Z,47.57
2017-10-15T01:47:18.355Z,31.93
2017-10-15T01:49:45.902Z,43.87
2017-10-15T01:52:13.476Z,48.40
2017-10-15T01:54:40.945Z,48.40
2017-10-15T01:57:09.180Z,54.33
2017-10-15T01:59:36.663Z,58.33
2017-10-15T02:02:04.215Z,69.30
2017-10-15T02:04:32.598Z,50.47
2017-10-15T02:07:00.851Z,38.00
2017-10-15T02:09:28.438Z,55.17
2017-10-15T02:11:55.963Z,58.43
2017-10-15T02:14:23.449Z,39.37
2017-10-15T02:16:50.904Z,59.63
2017-10-15T02:19:18.358Z,40.53
2017-10-15T02:21:45.842Z,46.37
2017-10-15T02:24:13.423Z,53.67
2017-10-15T02:26:40.903Z,68.13
2017-10-15T02:29:08.379Z,44.57
2017-10-15T02:31:35.858Z,48.37
2017-10-15T02:34:04.091Z,47.40
2017-10-15T02:36:31.640Z,55.20
2017-10-15T02:38:59.107Z,67.47
2017-10-15T02:41:26.619Z,57.40
2017-10-15T02:43:54.870Z,69.93
2017-10-15T02:46:22.341Z,59.90
2017-10-15T02:48:50.599Z,72.27
2017-10-15T02:51:18.088Z,66.27
2017-10-15T02:53:45.615Z,74.37
2017-10-15T02:56:13.174Z,66.13
2017-10-15T02:58:40.739Z,72.13
2017-10-15T03:01:08.216Z,59.20
2017-10-15T03:03:35.743Z,73.53
2017-10-15T03:06:03.219Z,48.13
2017-10-15T03:08:31.606Z,53.77
2017-10-15T03:10:59.840Z,44.90
2017-10-15T03:13:27.395Z,57.57
2017-10-15T03:15:54.863Z,69.23
2017-10-15T03:18:22.426Z,62.13
2017-10-15T03:20:49.911Z,78.10
2017-10-15T03:23:18.779Z,53.93
2017-10-15T03:25:46.336Z,73.03
2017-10-15T03:28:14.023Z,59.87
2017-10-15T03:30:42.253Z,69.30
2017-10-15T03:33:09.732Z,56.50
2017-10-15T03:35:37.999Z,91.00
2017-10-15T03:38:05.468Z,58.60
2017-10-15T03:40:33.026Z,63.20
2017-10-15T03:43:00.507Z,54.13
2017-10-15T03:45:28.765Z,60.67
2017-10-15T03:47:57.000Z,49.60
2017-10-15T03:50:24.591Z,74.10
2017-10-15T03:52:52.052Z,77.67
2017-10-15T03:55:21.300Z,57.77
2017-10-15T03:57:48.789Z,73.47
2017-10-15T04:00:16.263Z,75.23
2017-10-15T04:02:43.723Z,56.67
2017-10-15T04:05:11.967Z,59.70
2017-10-15T04:07:39.542Z,54.00
2017-10-15T04:10:07.023Z,46.37
2017-10-15T04:12:35.272Z,52.30
2017-10-15T04:15:03.511Z,59.63
2017-10-15T04:17:30.975Z,62.80
2017-10-15T04:19:58.462Z,39.03
2017-10-15T04:22:25.931Z,39.83
2017-10-15T04:24:53.488Z,65.33
2017-10-15T04:27:20.967Z,66.03
2017-10-15T04:29:49.203Z,61.57
2017-10-15T04:32:16.684Z,62.97
2017-10-15T04:34:44.952Z,71.40
2017-10-15T04:37:13.220Z,60.70
2017-10-15T04:39:41.451Z,81.80
2017-10-15T04:42:08.940Z,55.90
2017-10-15T04:44:36.399Z,48.03
2017-10-15T04:47:03.984Z,58.53
2017-10-15T04:49:31.456Z,46.17
2017-10-15T04:51:59.686Z,51.97
2017-10-15T04:54:27.164Z,54.33
2017-10-15T04:56:54.998Z,45.00
2017-10-15T04:59:22.459Z,60.17
2017-10-15T05:01:50.044Z,58.40
2017-10-15T05:04:17.753Z,39.63
2017-10-15T05:06:45.220Z,57.33
2017-10-15T05:09:12.692Z,69.63
2017-10-15T05:11:40.280Z,51.30
2017-10-15T05:14:08.239Z,59.17
2017-10-15T05:16:35.708Z,69.53
2017-10-15T05:19:03.191Z,35.57
2017-10-15T05:21:30.719Z,70.87
2017-10-15T05:23:59.298Z,48.13
2017-10-15T05:26:27.679Z,70.17
2017-10-15T05:28:55.235Z,69.40
2017-10-15T05:31:22.796Z,71.70
2017-10-15T05:33:50.276Z,50.50
2017-10-15T05:36:18.548Z,76.77
2017-10-15T05:38:46.839Z,80.67
2017-10-15T05:41:14.325Z,64.37
2017-10-15T05:43:41.805Z,49.40
2017-10-15T05:46:09.331Z,52.77
2017-10-15T05:48:36.837Z,49.07
2017-10-15T05:51:05.107Z,59.43
2017-10-15T05:53:32.568Z,53.90
2017-10-15T05:56:00.120Z,40.80
2017-10-15T05:58:27.680Z,49.37
2017-10-15T06:00:55.247Z,40.10
2017-10-15T06:03:23.499Z,45.83
2017-10-15T06:05:51.080Z,65.47
2017-10-15T06:08:18.821Z,58.77
2017-10-15T06:10:46.397Z,72.20
2017-10-15T06:13:13.876Z,64.43
2017-10-15T06:15:42.104Z,48.83
2017-10-15T06:18:09.687Z,60.77
2017-10-15T06:20:37.256Z,52.57
2017-10-15T06:23:05.483Z,40.87
2017-10-15T06:25:32.970Z,35.50
2017-10-15T06:28:00.471Z,59.40
2017-10-15T06:30:28.001Z,55.87
2017-10-15T06:32:55.503Z,34.33
2017-10-15T06:35:23.062Z,44.53
2017-10-15T06:37:51.291Z,42.67
2017-10-15T06:40:19.002Z,42.00
2017-10-15T06:42:47.098Z,45.40
2017-10-15T06:45:14.568Z,47.67
2017-10-15T06:47:42.060Z,50.30
2017-10-15T06:50:10.292Z,47.37
2017-10-15T06:52:38.076Z,39.27
2017-10-15T06:55:05.632Z,50.97
2017-10-15T06:57:33.100Z,47.67
2017-10-15T07:00:01.340Z,37.33
2017-10-15T07:02:28.919Z,51.87
2017-10-15T07:04:56.384Z,43.23
2017-10-15T07:07:23.942Z,38.77
2017-10-15T07:09:51.420Z,41.23
2017-10-15T07:12:19.652Z,38.20
2017-10-15T07:14:47.132Z,32.97
2017-10-15T07:17:14.604Z,33.90
2017-10-15T07:19:42.855Z,44.97
2017-10-15T07:22:10.320Z,38.30
2017-10-15T07:24:37.807Z,43.77
2017-10-15T07:27:05.323Z,37.50
2017-10-15T07:29:32.812Z,33.97
2017-10-15T07:32:01.059Z,38.20
2017-10-15T07:34:28.620Z,42.00
2017-10-15T07:36:56.100Z,38.43
2017-10-15T07:39:24.340Z,39.97
2017-10-15T07:41:51.807Z,34.93
2017-10-15T07:44:19.423Z,37.23
2017-10-15T07:46:47.399Z,35.67
2017-10-15T07:49:14.868Z,39.33
2017-10-15T07:51:42.346Z,33.67
2017-10-15T07:54:09.828Z,31.13
2017-10-15T07:56:38.064Z,32.53
2017-10-15T07:59:05.541Z,33.10
2017-10-15T08:01:33.019Z,28.73
2017-10-15T08:04:01.258Z,30.60
2017-10-15T08:06:28.749Z,30.50
2017-10-15T08:08:57.008Z,28.83
2017-10-15T08:11:24.459Z,25.57
2017-10-15T08:13:51.925Z,31.10
2017-10-15T08:16:19.432Z,26.53
2017-10-15T08:18:46.945Z,29.57
2017-10-15T08:21:14.408Z,26.20
2017-10-15T08:23:42.668Z,26.27
2017-10-15T08:26:10.216Z,24.00
2017-10-15T08:28:37.706Z,23.00
2017-10-15T08:31:06.055Z,23.50
2017-10-15T08:33:33.519Z,21.73
2017-10-15T08:36:01.012Z,22.63
2017-10-15T08:38:29.040Z,22.67
2017-10-15T08:40:56.600Z,23.23
2017-10-15T08:43:24.183Z,19.80
2017-10-15T08:45:51.695Z,21.10
2017-10-15T08:48:19.179Z,20.30
2017-10-15T08:50:46.689Z,21.20
2017-10-15T08:53:14.155Z,20.40
2017-10-15T08:55:41.643Z,18.03
2017-10-15T08:58:09.128Z,18.70
2017-10-15T09:00:37.359Z,17.80
2017-10-15T09:03:04.839Z,17.93
2017-10-15T09:05:32.327Z,17.53
2017-10-15T09:07:59.787Z,16.03
2017-10-15T09:10:27.267Z,15.00
2017-10-15T09:12:54.752Z,14.60
2017-10-15T09:15:22.232Z,14.17
2017-10-15T09:17:50.500Z,13.70
2017-10-15T09:20:18.003Z,15.37
2017-10-15T09:22:45.472Z,15.40
2017-10-15T09:25:12.963Z,15.50
2017-10-15T09:27:40.469Z,15.40
2017-10-15T09:30:07.948Z,14.13
2017-10-15T09:32:35.439Z,14.80
2017-10-15T09:35:03.195Z,15.90
2017-10-15T09:37:31.473Z,15.67
2017-10-15T10:01:09.727Z,14.50
2017-10-15T10:03:37.188Z,14.07
2017-10-15T10:06:04.682Z,15.20
2017-10-15T10:08:32.157Z,13.00
2017-10-15T10:10:59.636Z,12.80
2017-10-15T10:13:27.112Z,12.70
2017-10-15T10:15:54.578Z,13.60
2017-10-15T10:18:22.067Z,13.00
2017-10-15T10:20:49.545Z,12.70
2017-10-15T10:23:17.967Z,12.97
2017-10-15T10:25:45.448Z,11.93
2017-10-15T10:28:13.559Z,12.80
2017-10-15T10:30:41.799Z,13.53
2017-10-15T10:33:09.274Z,13.23
2017-10-15T10:35:36.747Z,13.27
2017-10-15T10:38:04.986Z,14.10
2017-10-15T10:40:32.467Z,13.17
2017-10-15T10:43:00.714Z,11.70
2017-10-15T10:45:28.204Z,12.53
2017-10-15T10:47:56.451Z,14.10
2017-10-15T10:50:24.612Z,13.67
2017-10-15T10:52:52.094Z,13.10
2017-10-15T10:55:19.564Z,12.17
2017-10-15T10:57:47.807Z,12.33
2017-10-15T11:00:15.295Z,11.50
2017-10-15T11:02:42.768Z,12.00
2017-10-15T11:05:11.049Z,12.60
2017-10-15T11:07:38.528Z,12.30
2017-10-15T11:10:06.011Z,12.60
2017-10-15T11:12:33.496Z,12.00
2017-10-15T11:15:00.967Z,12.67
2017-10-15T11:17:29.212Z,11.50
2017-10-15T11:19:56.688Z,12.20
2017-10-15T11:22:24.940Z,13.23
2017-10-15T11:24:52.411Z,14.53
2017-10-15T11:27:19.883Z,12.83
2017-10-15T11:29:48.117Z,13.47
2017-10-15T11:32:15.593Z,12.10
2017-10-15T11:34:43.105Z,12.20
2017-10-15T11:37:10.603Z,14.27
2017-10-15T11:39:38.119Z,14.07
2017-10-15T11:42:05.592Z,12.80
2017-10-15T11:44:33.063Z,11.70
2017-10-15T11:47:00.574Z,12.90
2017-10-15T11:49:28.032Z,15.03
2017-10-15T11:51:55.551Z,13.07
2017-10-15T11:54:23.200Z,13.50
2017-10-15T11:56:51.374Z,13.03
2017-10-15T11:59:18.830Z,13.67
2017-10-15T12:01:46.400Z,12.07
2017-10-15T12:04:13.862Z,12.27
2017-10-15T12:06:41.332Z,13.10
2017-10-15T12:09:08.874Z,12.83
2017-10-15T12:11:36.330Z,12.53
2017-10-15T12:14:03.808Z,11.93
2017-10-15T12:16:32.164Z,13.17
2017-10-15T12:18:59.631Z,13.47
2017-10-15T12:21:27.100Z,13.40
2017-10-15T12:23:55.344Z,12.10
2017-10-15T12:26:22.809Z,11.73
2017-10-15T12:28:50.279Z,13.27
2017-10-15T12:31:18.554Z,14.33
2017-10-15T12:33:46.052Z,12.93
2017-10-15T12:36:13.514Z,11.87
2017-10-15T12:38:40.999Z,11.57
2017-10-15T12:41:09.240Z,12.33
2017-10-15T12:43:36.711Z,12.00
2017-10-15T12:46:04.196Z,11.10
2017-10-15T12:48:31.655Z,11.70
2017-10-15T12:50:59.124Z,10.93
2017-10-15T12:53:27.375Z,11.60
2017-10-15T12:55:54.849Z,10.77
2017-10-15T12:58:22.547Z,9.63
2017-10-15T13:00:50.026Z,10.20
2017-10-15T13:03:17.504Z,12.03
2017-10-15T13:05:44.985Z,11.00
2017-10-15T13:08:13.268Z,10.40
2017-10-15T13:10:41.519Z,10.00
2017-10-15T13:13:08.983Z,9.93
2017-10-15T13:15:36.464Z,10.10
2017-10-15T13:18:04.701Z,10.00
2017-10-15T13:20:32.163Z,8.50
2017-10-15T13:23:00.091Z,9.47
2017-10-15T13:25:27.571Z,10.50
2017-10-15T13:27:55.053Z,9.20
2017-10-15T13:30:24.224Z,10.40
2017-10-15T13:32:51.698Z,9.93
2017-10-15T13:35:20.077Z,10.00
2017-10-15T13:37:47.615Z,9.67
2017-10-15T13:40:16.112Z,9.83
2017-10-15T13:42:43.578Z,8.90
2017-10-15T13:45:11.040Z,9.63
2017-10-15T13:50:21.733Z,9.03
2017-10-15T13:52:49.196Z,9.60
2017-10-15T13:55:16.659Z,8.50
2017-10-15T13:57:44.141Z,9.00
2017-10-15T14:00:12.368Z,9.60
2017-10-15T14:02:39.823Z,8.60
2017-10-15T14:05:07.400Z,8.30
2017-10-15T14:07:35.468Z,8.50
2017-10-15T14:10:02.960Z,8.63
2017-10-15T14:12:31.185Z,9.40
2017-10-15T14:14:59.412Z,9.53
2017-10-15T14:17:27.646Z,8.50
2017-10-15T14:19:55.099Z,8.30
2017-10-15T14:22:22.559Z,7.70
2017-10-15T14:24:50.856Z,8.50
2017-10-15T14:27:18.316Z,8.50
2017-10-15T14:29:45.771Z,9.67
2017-10-15T14:32:13.260Z,7.70
2017-10-15T14:34:40.711Z,8.43
2017-10-15T14:37:08.192Z,8.27
2017-10-15T14:39:35.687Z,7.50
2017-10-15T14:42:03.160Z,8.53
2017-10-15T14:44:30.636Z,8.20
2017-10-15T14:46:59.417Z,8.03
2017-10-15T14:49:27.651Z,8.40
2017-10-15T14:51:55.933Z,9.13
2017-10-15T14:54:24.084Z,9.20
2017-10-15T14:56:51.554Z,9.17
2017-10-15T14:59:19.032Z,9.33
2017-10-15T15:01:46.543Z,9.13
2017-10-15T15:04:14.066Z,7.40
2017-10-15T15:06:42.299Z,8.93
2017-10-15T15:09:09.776Z,9.00
2017-10-15T15:11:37.255Z,9.40
2017-10-15T15:14:05.487Z,9.57
2017-10-15T15:16:32.979Z,9.40
2017-10-15T15:19:01.756Z,8.97
2017-10-15T15:21:29.231Z,10.00
2017-10-15T15:23:58.469Z,8.80
2017-10-15T15:26:25.960Z,10.10
2017-10-15T15:28:53.428Z,9.63
2017-10-15T15:31:20.895Z,10.10
2017-10-15T15:33:50.160Z,9.50
2017-10-15T15:36:17.646Z,8.80
2017-10-15T15:38:45.117Z,8.97
2017-10-15T15:41:13.355Z,9.53
2017-10-15T15:43:40.826Z,8.77
2017-10-15T15:46:08.326Z,8.70
2017-10-15T15:48:35.803Z,8.77
2017-10-15T15:51:03.313Z,9.60
2017-10-15T15:53:31.550Z,9.47
2017-10-15T15:55:59.046Z,9.67
2017-10-15T15:58:27.308Z,9.43
2017-10-15T16:00:54.798Z,9.90
2017-10-15T16:03:23.039Z,9.80
2017-10-15T16:05:51.292Z,10.60
2017-10-15T16:08:18.771Z,10.60
2017-10-15T16:10:46.252Z,9.97
2017-10-15T16:13:14.500Z,11.37
2017-10-15T16:15:41.971Z,12.33
2017-10-15T16:18:10.207Z,11.97
2017-10-15T16:20:38.396Z,11.83
2017-10-15T16:23:05.866Z,12.53
2017-10-15T16:25:33.419Z,11.63
2017-10-15T16:28:00.892Z,10.20
2017-10-15T16:30:30.144Z,12.57
2017-10-15T16:32:57.619Z,11.20
2017-10-15T16:35:25.111Z,10.77
2017-10-15T16:37:53.364Z,12.60
2017-10-15T16:40:20.833Z,10.73
2017-10-15T16:42:49.951Z,12.37
2017-10-15T16:45:17.433Z,10.80
2017-10-15T16:47:44.904Z,11.23
2017-10-15T16:50:12.395Z,10.47
2017-10-15T16:52:40.775Z,12.57
2017-10-15T16:55:08.243Z,11.20
2017-10-15T16:57:36.492Z,11.13
2017-10-15T17:00:03.973Z,11.67
2017-10-15T17:02:32.216Z,11.70
2017-10-15T17:04:59.699Z,11.97
2017-10-15T17:07:27.944Z,12.70
2017-10-15T17:09:56.545Z,12.93
2017-10-15T17:12:24.010Z,14.43
2017-10-15T17:14:51.479Z,16.57
2017-10-15T17:17:19.725Z,16.90
2017-10-15T17:19:47.503Z,18.80
2017-10-15T17:22:14.972Z,20.00
2017-10-15T17:24:43.258Z,24.00
2017-10-15T17:27:10.744Z,26.23
2017-10-15T17:29:39.566Z,25.70
2017-10-15T17:32:07.048Z,26.63
2017-10-15T17:34:35.300Z,24.47
2017-10-15T17:37:02.853Z,21.93
2017-10-15T17:39:34.605Z,18.97
2017-10-15T17:42:02.081Z,17.50
2017-10-15T17:44:29.611Z,16.13
2017-10-15T17:46:57.083Z,18.00
2017-10-15T17:49:25.181Z,16.33
2017-10-15T17:51:53.431Z,15.10
2017-10-15T17:54:20.913Z,15.90
2017-10-15T17:56:48.855Z,13.60
2017-10-15T17:59:16.331Z,15.47
2017-10-15T18:01:43.806Z,15.37
2017-10-15T18:04:12.066Z,16.87
2017-10-15T18:06:39.527Z,15.70
2017-10-15T18:09:07.778Z,15.23
2017-10-15T18:11:35.252Z,15.53
2017-10-15T18:14:02.707Z,14.50
2017-10-15T18:16:30.177Z,14.70
2017-10-15T18:18:58.420Z,14.70
2017-10-15T18:21:25.889Z,16.60
2017-10-15T18:23:53.351Z,16.50
2017-10-15T18:26:20.824Z,16.10
2017-10-15T18:28:49.080Z,18.53
2017-10-15T18:31:16.539Z,18.00
2017-10-15T18:33:44.045Z,16.87
2017-10-15T18:36:11.527Z,16.20
2017-10-15T18:38:38.992Z,15.83
2017-10-15T18:41:06.475Z,15.50
2017-10-15T18:43:34.716Z,16.60
2017-10-15T18:46:02.691Z,14.20
2017-10-15T18:48:30.175Z,14.80
2017-10-15T18:50:58.399Z,15.10
2017-10-15T18:53:25.872Z,16.07
2017-10-15T18:55:53.347Z,15.00
2017-10-15T18:58:20.815Z,16.00
2017-10-15T19:00:49.959Z,16.30
2017-10-15T19:03:17.450Z,14.90
2017-10-15T19:05:44.916Z,15.53
2017-10-15T19:08:12.405Z,15.83
2017-10-15T19:10:39.904Z,15.10
2017-10-15T19:13:07.587Z,15.20
2017-10-15T19:15:35.372Z,15.50
2017-10-15T19:18:02.847Z,15.17
2017-10-15T19:20:31.080Z,15.23
2017-10-15T19:22:59.368Z,16.67
2017-10-15T19:25:26.861Z,15.17
2017-10-15T19:27:54.334Z,16.50
2017-10-15T19:30:22.696Z,14.93
2017-10-15T19:32:50.176Z,15.30
2017-10-15T19:35:17.648Z,16.60
2017-10-15T19:37:46.163Z,15.33
2017-10-15T19:40:13.636Z,15.87
2017-10-15T19:42:41.859Z,15.20
2017-10-15T19:45:09.318Z,15.80
2017-10-15T19:47:36.807Z,15.30
2017-10-15T19:50:05.051Z,15.40
2017-10-15T19:52:32.516Z,14.93
2017-10-15T19:55:00.028Z,16.77
2017-10-15T19:57:27.488Z,15.70
2017-10-15T19:59:54.967Z,16.30
2017-10-15T20:02:22.457Z,15.37
2017-10-15T20:04:49.912Z,14.83
2017-10-15T20:07:18.133Z,15.83
2017-10-15T20:09:45.612Z,14.10
2017-10-15T20:12:13.077Z,15.17
2017-10-15T20:14:40.544Z,13.77
2017-10-15T20:17:08.030Z,13.00
2017-10-15T20:19:36.260Z,14.27
2017-10-15T20:22:03.719Z,14.37
2017-10-15T20:24:31.817Z,13.50
2017-10-15T20:26:59.280Z,13.20
2017-10-15T20:29:26.751Z,13.07
2017-10-15T20:31:54.987Z,14.10
2017-10-15T20:34:22.471Z,14.70
2017-10-15T20:36:50.792Z,13.70
2017-10-15T20:39:18.407Z,14.10
2017-10-15T20:41:45.863Z,13.90
2017-10-15T20:44:13.344Z,13.00
2017-10-15T20:46:41.588Z,13.30
2017-10-15T20:49:09.063Z,13.50
2017-10-15T20:51:37.313Z,13.77
2017-10-15T20:54:04.781Z,14.70
2017-10-15T20:56:32.252Z,13.83
2017-10-15T20:59:00.496Z,13.67
2017-10-15T21:01:27.963Z,14.87
2017-10-15T21:03:55.454Z,13.13
2017-10-15T21:06:22.916Z,14.20
2017-10-15T21:08:50.399Z,13.93
2017-10-15T21:11:17.875Z,14.70
2017-10-15T21:13:45.332Z,15.67
2017-10-15T21:16:13.432Z,15.03
2017-10-15T21:18:41.692Z,13.53
2017-10-15T21:21:09.168Z,15.17
2017-10-15T21:23:36.621Z,13.87
2017-10-15T21:26:04.947Z,15.00
2017-10-15T21:28:32.393Z,15.90
2017-10-15T21:30:59.856Z,15.20
2017-10-15T21:33:27.334Z,14.70
2017-10-15T21:35:54.804Z,16.30
2017-10-15T21:38:22.273Z,15.47
2017-10-15T21:40:49.739Z,16.30
2017-10-15T21:43:17.968Z,17.20
2017-10-15T21:45:45.440Z,15.33
2017-10-15T21:48:12.919Z,16.10
2017-10-15T21:50:40.383Z,16.60
2017-10-15T21:53:08.629Z,15.30
2017-10-15T21:55:36.125Z,15.10
2017-10-15T21:58:04.360Z,15.77
2017-10-15T22:00:31.818Z,17.40
2017-10-15T22:02:59.293Z,16.53
2017-10-15T22:05:26.756Z,16.67
2017-10-15T22:07:54.257Z,17.07
2017-10-15T22:10:21.731Z,19.03
2017-10-15T22:12:49.196Z,18.50
2017-10-15T22:15:16.692Z,17.57
2017-10-15T22:17:44.932Z,17.83
2017-10-15T22:20:12.396Z,17.67
2017-10-15T22:22:39.860Z,19.47
2017-10-15T22:25:07.334Z,19.10
2017-10-15T22:27:34.799Z,20.10
2017-10-15T22:30:03.028Z,16.73
2017-10-15T22:32:30.512Z,19.17
2017-10-15T22:34:57.976Z,20.40
2017-10-15T22:37:25.430Z,18.57
2017-10-15T22:39:53.034Z,19.43
2017-10-15T22:42:21.386Z,20.03
2017-10-15T22:44:49.618Z,20.30
2017-10-15T22:47:17.096Z,19.17
2017-10-15T22:49:44.592Z,20.27
2017-10-15T22:52:12.053Z,20.73
2017-10-15T22:54:39.529Z,22.17
2017-10-15T22:57:06.983Z,19.17
2017-10-15T22:59:34.442Z,20.07
2017-10-15T23:02:01.925Z,22.60
2017-10-15T23:04:29.395Z,19.20
2017-10-15T23:06:56.855Z,21.97
2017-10-15T23:09:24.330Z,18.97
2017-10-15T23:11:52.555Z,22.60
2017-10-15T23:14:20.011Z,21.70
2017-10-15T23:16:47.808Z,21.90
2017-10-15T23:19:15.270Z,21.70
2017-10-15T23:21:43.329Z,22.27
2017-10-15T23:24:10.805Z,23.47
2017-10-15T23:26:39.108Z,20.80
2017-10-15T23:29:06.590Z,23.37
2017-10-15T23:31:34.062Z,21.77
2017-10-15T23:34:01.524Z,21.93
2017-10-15T23:36:29.015Z,22.67
2017-10-15T23:38:56.500Z,21.47
2017-10-15T23:41:23.972Z,23.40
2017-10-15T23:43:51.440Z,22.23
2017-10-15T23:46:18.912Z,24.03
2017-10-15T23:48:46.370Z,24.50
2017-10-15T23:51:13.845Z,24.97
2017-10-15T23:53:42.091Z,25.03
2017-10-15T23:56:09.561Z,23.30
2017-10-15T23:58:37.019Z,23.43
